Time,TemperatureF,DewpointF,PressureIn,WindDirection,WindDirectionDegrees,WindSpeedMPH,WindSpeedGustMPH,Humidity,HourlyPrecipIn,Conditions,Clouds,dailyrainin,SolarRadiationWatts/m^2,SoftwareType,DateUTC
2013-05-07 00:00:00,54.0,51.1,29.99,WNW,302,0.0,1.0,90,0.00,,,0.05,0,Wunderground v.1.15,2013-05-07 07:00:00,
2013-05-07 00:06:00,53.9,51.0,29.99,WNW,302,0.0,1.0,90,0.00,,,0.05,0,Wunderground v.1.15,2013-05-07 07:06:00,
2013-05-07 00:11:00,53.9,51.0,29.99,WNW,302,0.0,1.0,90,0.00,,,0.05,0,Wunderground v.1.15,2013-05-07 07:11:00,
2013-05-07 00:16:00,53.9,51.0,29.99,WNW,302,0.0,1.0,90,0.00,,,0.05,0,Wunderground v.1.15,2013-05-07 07:16:00,
2013-05-07 00:22:00,53.8,50.9,29.99,WNW,302,0.0,1.0,90,0.00,,,0.05,0,Wunderground v.1.15,2013-05-07 07:22:00,
2013-05-07 00:28:00,53.8,50.9,29.99,WNW,302,0.0,1.0,90,0.00,,,0.05,0,Wunderground v.1.15,2013-05-07 07:28:00,
2013-05-07 00:33:00,53.8,50.9,29.99,WNW,302,0.0,1.0,90,0.00,,,0.05,0,Wunderground v.1.15,2013-05-07 07:33:00,
2013-05-07 00:39:00,53.7,50.8,29.99,WNW,302,0.0,1.0,90,0.00,,,0.05,0,Wunderground v.1.15,2013-05-07 07:39:00,
2013-05-07 00:44:00,53.6,50.7,29.99,WNW,302,0.0,1.0,90,0.00,,,0.05,0,Wunderground v.1.15,2013-05-07 07:44:00,
2013-05-07 00:49:00,53.6,50.7,29.99,WNW,302,0.0,1.0,90,0.00,,,0.05,0,Wunderground v.1.15,2013-05-07 07:49:00,
2013-05-07 00:54:00,53.5,50.6,29.99,WNW,302,0.0,1.0,90,0.00,,,0.05,0,Wunderground v.1.15,2013-05-07 07:54:00,
2013-05-07 00:59:00,53.3,50.4,29.99,WNW,302,0.0,1.0,90,0.00,,,0.05,0,Wunderground v.1.15,2013-05-07 07:59:00,
2013-05-07 01:05:00,53.2,50.3,29.99,WNW,302,0.0,1.0,90,0.00,,,0.05,0,Wunderground v.1.15,2013-05-07 08:05:00,
2013-05-07 01:10:00,53.1,50.2,29.99,WNW,302,0.0,1.0,90,0.00,,,0.05,0,Wunderground v.1.15,2013-05-07 08:10:00,
2013-05-07 01:15:00,52.9,50.0,29.99,WNW,302,0.0,1.0,90,0.00,,,0.05,0,Wunderground v.1.15,2013-05-07 08:15:00,
2013-05-07 01:20:00,52.8,49.9,29.99,WNW,302,0.0,1.0,90,0.00,,,0.05,0,Wunderground v.1.15,2013-05-07 08:20:00,
2013-05-07 01:26:00,52.6,49.8,29.99,WNW,302,0.0,1.0,90,0.00,,,0.05,0,Wunderground v.1.15,2013-05-07 08:26:00,
2013-05-07 01:31:00,52.4,49.8,29.99,WNW,302,0.0,1.0,91,0.00,,,0.05,0,Wunderground v.1.15,2013-05-07 08:31:00,
2013-05-07 01:37:00,52.3,49.5,29.99,WNW,302,0.0,1.0,90,0.00,,,0.05,0,Wunderground v.1.15,2013-05-07 08:37:00,
2013-05-07 01:43:00,52.1,49.3,29.99,WNW,302,0.0,1.0,90,0.00,,,0.05,0,Wunderground v.1.15,2013-05-07 08:43:00,
2013-05-07 01:48:00,52.0,49.5,29.99,WNW,302,0.0,1.0,91,0.00,,,0.05,0,Wunderground v.1.15,2013-05-07 08:48:00,
2013-05-07 01:53:00,51.8,49.3,29.99,WNW,302,0.0,1.0,91,0.00,,,0.05,0,Wunderground v.1.15,2013-05-07 08:53:00,
2013-05-07 01:59:00,51.7,49.2,29.99,WNW,302,0.0,1.0,91,0.00,,,0.05,0,Wunderground v.1.15,2013-05-07 08:59:00,
2013-05-07 02:04:00,51.6,49.1,29.99,WNW,302,0.0,1.0,91,0.00,,,0.05,0,Wunderground v.1.15,2013-05-07 09:04:00,
2013-05-07 02:10:00,51.6,49.1,29.99,WNW,302,0.0,1.0,91,0.00,,,0.05,0,Wunderground v.1.15,2013-05-07 09:10:00,
2013-05-07 02:16:00,51.5,49.0,29.99,WNW,302,0.0,1.0,91,0.00,,,0.05,0,Wunderground v.1.15,2013-05-07 09:16:00,
2013-05-07 02:22:00,51.5,49.0,29.99,WNW,302,0.0,1.0,91,0.00,,,0.05,0,Wunderground v.1.15,2013-05-07 09:22:00,
2013-05-07 02:28:00,51.4,48.9,29.98,WNW,302,0.0,1.0,91,0.00,,,0.05,0,Wunderground v.1.15,2013-05-07 09:28:00,
2013-05-07 02:34:00,51.4,48.9,29.98,WNW,302,0.0,1.0,91,0.00,,,0.05,0,Wunderground v.1.15,2013-05-07 09:34:00,
2013-05-07 02:39:00,51.3,48.8,29.99,WNW,302,0.0,1.0,91,0.00,,,0.05,0,Wunderground v.1.15,2013-05-07 09:39:00,
2013-05-07 02:44:00,51.3,48.8,29.99,WNW,302,0.0,1.0,91,0.00,,,0.06,0,Wunderground v.1.15,2013-05-07 09:44:00,
2013-05-07 02:49:00,51.3,49.1,29.99,WNW,302,0.0,1.0,92,0.00,,,0.06,0,Wunderground v.1.15,2013-05-07 09:49:00,
2013-05-07 02:55:00,51.2,49.0,29.99,WNW,302,0.0,1.0,92,0.00,,,0.06,0,Wunderground v.1.15,2013-05-07 09:55:00,
2013-05-07 03:01:00,51.2,49.0,29.99,WNW,302,0.0,1.0,92,0.00,,,0.06,0,Wunderground v.1.15,2013-05-07 10:01:00,
2013-05-07 03:06:00,51.1,48.9,29.99,WNW,302,0.0,1.0,92,0.00,,,0.06,0,Wunderground v.1.15,2013-05-07 10:06:00,
2013-05-07 03:12:00,51.2,49.0,29.99,WNW,302,0.0,1.0,92,0.00,,,0.06,0,Wunderground v.1.15,2013-05-07 10:12:00,
2013-05-07 03:17:00,51.2,49.0,29.99,WNW,302,0.0,1.0,92,0.00,,,0.06,0,Wunderground v.1.15,2013-05-07 10:17:00,
2013-05-07 03:23:00,51.3,49.1,29.99,WNW,302,0.0,1.0,92,0.00,,,0.06,0,Wunderground v.1.15,2013-05-07 10:23:00,
2013-05-07 03:28:00,51.4,49.2,29.99,WNW,302,0.0,1.0,92,0.00,,,0.06,0,Wunderground v.1.15,2013-05-07 10:28:00,
2013-05-07 03:34:00,51.4,49.2,30.00,WNW,302,0.0,1.0,92,0.00,,,0.06,0,Wunderground v.1.15,2013-05-07 10:34:00,
2013-05-07 03:40:00,51.5,49.3,30.00,WNW,302,0.0,1.0,92,0.00,,,0.06,0,Wunderground v.1.15,2013-05-07 10:40:00,
2013-05-07 03:46:00,51.5,49.3,30.00,WNW,302,0.0,1.0,92,0.00,,,0.06,0,Wunderground v.1.15,2013-05-07 10:46:00,
2013-05-07 03:52:00,51.5,49.3,30.00,WNW,302,0.0,1.0,92,0.00,,,0.06,0,Wunderground v.1.15,2013-05-07 10:52:00,
2013-05-07 03:58:00,51.5,49.3,30.00,WNW,302,0.0,1.0,92,0.00,,,0.06,0,Wunderground v.1.15,2013-05-07 10:58:00,
2013-05-07 04:04:00,51.5,49.5,30.00,WNW,302,0.0,1.0,93,0.00,,,0.06,0,Wunderground v.1.15,2013-05-07 11:04:00,
2013-05-07 04:10:00,51.6,49.6,30.00,WNW,302,0.0,1.0,93,0.00,,,0.06,0,Wunderground v.1.15,2013-05-07 11:10:00,
2013-05-07 04:15:00,51.6,49.6,30.00,WNW,302,0.0,1.0,93,0.00,,,0.06,0,Wunderground v.1.15,2013-05-07 11:15:00,
2013-05-07 04:20:00,51.7,49.7,30.00,WNW,302,0.0,1.0,93,0.00,,,0.06,0,Wunderground v.1.15,2013-05-07 11:20:00,
2013-05-07 04:25:00,51.8,49.8,30.00,WNW,302,0.0,1.0,93,0.00,,,0.06,0,Wunderground v.1.15,2013-05-07 11:25:00,
2013-05-07 04:31:00,52.0,50.0,30.00,WNW,302,0.0,1.0,93,0.00,,,0.06,0,Wunderground v.1.15,2013-05-07 11:31:00,
2013-05-07 04:37:00,52.1,50.1,30.00,WNW,302,0.0,1.0,93,0.00,,,0.06,0,Wunderground v.1.15,2013-05-07 11:37:00,
2013-05-07 04:42:00,52.2,50.2,30.00,WNW,302,0.0,1.0,93,0.00,,,0.06,0,Wunderground v.1.15,2013-05-07 11:42:00,
2013-05-07 04:47:00,52.3,50.3,30.00,WNW,302,0.0,1.0,93,0.00,,,0.06,0,Wunderground v.1.15,2013-05-07 11:47:00,
2013-05-07 04:52:00,52.4,50.4,30.00,WNW,302,0.0,1.0,93,0.00,,,0.06,0,Wunderground v.1.15,2013-05-07 11:52:00,
2013-05-07 04:58:00,52.5,50.5,30.00,WNW,302,0.0,1.0,93,0.00,,,0.06,0,Wunderground v.1.15,2013-05-07 11:58:00,
2013-05-07 05:03:00,52.6,50.6,30.00,WNW,302,0.0,1.0,93,0.00,,,0.06,0,Wunderground v.1.15,2013-05-07 12:03:00,
2013-05-07 05:09:00,52.7,50.7,30.00,WNW,302,0.0,1.0,93,0.00,,,0.06,0,Wunderground v.1.15,2013-05-07 12:09:00,
2013-05-07 05:14:00,52.8,50.8,30.00,WNW,302,0.0,1.0,93,0.00,,,0.06,0,Wunderground v.1.15,2013-05-07 12:14:00,
2013-05-07 05:19:00,52.8,50.8,30.00,WNW,302,0.0,1.0,93,0.00,,,0.06,0,Wunderground v.1.15,2013-05-07 12:19:00,
2013-05-07 05:25:00,52.9,50.9,30.00,WNW,302,0.0,1.0,93,0.00,,,0.06,0,Wunderground v.1.15,2013-05-07 12:25:00,
2013-05-07 05:30:00,53.0,51.0,30.00,WNW,302,0.0,1.0,93,0.00,,,0.06,0,Wunderground v.1.15,2013-05-07 12:30:00,
2013-05-07 05:36:00,53.1,51.1,30.00,WNW,302,0.0,1.0,93,0.00,,,0.06,0,Wunderground v.1.15,2013-05-07 12:36:00,
2013-05-07 05:41:00,53.2,51.2,29.99,WNW,302,0.0,1.0,93,0.00,,,0.06,0,Wunderground v.1.15,2013-05-07 12:41:00,
2013-05-07 05:47:00,53.4,51.7,30.00,WNW,302,0.0,1.0,94,0.00,,,0.06,0,Wunderground v.1.15,2013-05-07 12:47:00,
2013-05-07 05:53:00,53.6,51.9,30.00,WNW,302,0.0,1.0,94,0.00,,,0.06,0,Wunderground v.1.15,2013-05-07 12:53:00,
2013-05-07 05:59:00,53.7,52.0,30.00,WNW,302,0.0,1.0,94,0.00,,,0.06,0,Wunderground v.1.15,2013-05-07 12:59:00,
2013-05-07 06:04:00,53.8,51.8,30.00,WNW,302,0.0,1.0,93,0.00,,,0.06,0,Wunderground v.1.15,2013-05-07 13:04:00,
2013-05-07 06:10:00,53.7,51.7,30.00,WNW,302,0.0,1.0,93,0.00,,,0.06,0,Wunderground v.1.15,2013-05-07 13:10:00,
2013-05-07 06:15:00,53.7,51.7,30.00,WNW,302,0.0,1.0,93,0.00,,,0.06,0,Wunderground v.1.15,2013-05-07 13:15:00,
2013-05-07 06:20:00,53.6,51.6,30.01,WNW,302,0.0,1.0,93,0.00,,,0.06,7,Wunderground v.1.15,2013-05-07 13:20:00,
2013-05-07 06:25:00,53.6,51.6,30.01,WNW,302,0.0,1.0,93,0.00,,,0.06,9,Wunderground v.1.15,2013-05-07 13:25:00,
2013-05-07 06:31:00,53.6,51.6,30.01,WNW,302,0.0,1.0,93,0.00,,,0.00,11,Wunderground v.1.15,2013-05-07 13:31:00,
2013-05-07 06:36:00,53.6,51.6,30.01,WNW,302,0.0,1.0,93,0.00,,,0.00,14,Wunderground v.1.15,2013-05-07 13:36:00,
2013-05-07 06:41:00,53.7,51.7,30.01,WNW,302,0.0,1.0,93,0.00,,,0.00,18,Wunderground v.1.15,2013-05-07 13:41:00,
2013-05-07 06:46:00,53.8,51.8,30.01,WNW,302,0.0,1.0,93,0.00,,,0.00,21,Wunderground v.1.15,2013-05-07 13:46:00,
2013-05-07 06:52:00,53.9,51.9,30.01,WNW,302,0.0,1.0,93,0.00,,,0.00,28,Wunderground v.1.15,2013-05-07 13:52:00,
2013-05-07 06:57:00,54.0,52.0,30.01,WNW,302,0.0,1.0,93,0.00,,,0.00,35,Wunderground v.1.15,2013-05-07 13:57:00,
2013-05-07 07:03:00,54.2,52.2,30.01,WNW,302,0.0,1.0,93,0.00,,,0.00,44,Wunderground v.1.15,2013-05-07 14:03:00,
2013-05-07 07:08:00,54.3,52.3,30.02,WNW,302,0.0,1.0,93,0.00,,,0.00,47,Wunderground v.1.15,2013-05-07 14:08:00,
2013-05-07 07:13:00,54.4,52.4,30.02,WNW,302,0.0,1.0,93,0.00,,,0.00,53,Wunderground v.1.15,2013-05-07 14:13:00,
2013-05-07 07:18:00,54.5,52.5,30.02,WNW,302,0.0,1.0,93,0.00,,,0.00,60,Wunderground v.1.15,2013-05-07 14:18:00,
2013-05-07 07:24:00,54.6,52.6,30.02,WNW,302,0.0,1.0,93,0.00,,,0.00,62,Wunderground v.1.15,2013-05-07 14:24:00,
2013-05-07 07:30:00,54.8,52.8,30.02,WNW,302,0.0,1.0,93,0.00,,,0.00,74,Wunderground v.1.15,2013-05-07 14:30:00,
2013-05-07 07:36:00,54.8,52.8,30.02,WNW,302,0.0,1.0,93,0.00,,,0.00,72,Wunderground v.1.15,2013-05-07 14:36:00,
2013-05-07 07:42:00,55.0,53.0,30.02,WNW,302,0.0,1.0,93,0.00,,,0.00,67,Wunderground v.1.15,2013-05-07 14:42:00,
2013-05-07 07:48:00,55.1,53.1,30.02,WNW,302,0.0,1.0,93,0.00,,,0.00,74,Wunderground v.1.15,2013-05-07 14:48:00,
2013-05-07 07:54:00,55.2,53.2,30.02,WNW,302,0.0,1.0,93,0.00,,,0.00,76,Wunderground v.1.15,2013-05-07 14:54:00,
2013-05-07 08:00:00,55.4,53.1,30.02,WNW,302,0.0,1.0,92,0.00,,,0.00,81,Wunderground v.1.15,2013-05-07 15:00:00,
2013-05-07 08:05:00,55.5,53.2,30.03,WNW,302,0.0,1.0,92,0.00,,,0.00,79,Wunderground v.1.15,2013-05-07 15:05:00,
2013-05-07 08:11:00,55.7,53.4,30.03,WNW,302,0.0,1.0,92,0.00,,,0.00,72,Wunderground v.1.15,2013-05-07 15:11:00,
2013-05-07 08:17:00,55.8,53.5,30.03,WNW,302,0.0,1.0,92,0.00,,,0.00,70,Wunderground v.1.15,2013-05-07 15:17:00,
2013-05-07 08:22:00,55.9,53.6,30.03,WNW,302,0.0,1.0,92,0.00,,,0.00,70,Wunderground v.1.15,2013-05-07 15:22:00,
2013-05-07 08:27:00,56.0,53.7,30.03,WNW,302,0.0,1.0,92,0.00,,,0.00,79,Wunderground v.1.15,2013-05-07 15:27:00,
2013-05-07 08:33:00,56.2,53.6,30.03,WNW,302,0.0,1.0,91,0.00,,,0.00,76,Wunderground v.1.15,2013-05-07 15:33:00,
2013-05-07 08:39:00,56.2,53.6,30.03,WNW,302,0.0,1.0,91,0.00,,,0.00,98,Wunderground v.1.15,2013-05-07 15:39:00,
2013-05-07 08:44:00,56.3,53.7,30.03,WNW,302,0.0,1.0,91,0.00,,,0.00,105,Wunderground v.1.15,2013-05-07 15:44:00,
2013-05-07 08:49:00,56.4,53.5,30.03,WNW,302,0.0,1.0,90,0.00,,,0.00,118,Wunderground v.1.15,2013-05-07 15:49:00,
2013-05-07 08:54:00,56.5,53.6,30.03,WNW,302,0.0,2.0,90,0.00,,,0.00,125,Wunderground v.1.15,2013-05-07 15:54:00,
2013-05-07 08:59:00,56.7,53.8,30.03,WNW,302,0.0,2.0,90,0.00,,,0.00,120,Wunderground v.1.15,2013-05-07 15:59:00,
2013-05-07 09:05:00,56.8,53.6,30.04,NW,325,1.0,4.0,89,0.00,,,0.00,123,Wunderground v.1.15,2013-05-07 16:05:00,
2013-05-07 09:11:00,57.0,53.5,30.04,NW,311,1.0,1.0,88,0.00,,,0.00,135,Wunderground v.1.15,2013-05-07 16:11:00,
2013-05-07 09:16:00,57.1,53.6,30.04,NW,319,1.0,3.0,88,0.00,,,0.00,178,Wunderground v.1.15,2013-05-07 16:16:00,
2013-05-07 09:22:00,57.3,53.5,30.04,WNW,288,1.0,4.0,87,0.00,,,0.00,257,Wunderground v.1.15,2013-05-07 16:22:00,
2013-05-07 09:27:00,57.4,53.2,30.04,NW,304,1.0,4.0,86,0.00,,,0.00,322,Wunderground v.1.15,2013-05-07 16:27:00,
2013-05-07 09:32:00,57.8,54.0,30.04,NNW,329,1.0,4.0,87,0.00,,,0.00,304,Wunderground v.1.15,2013-05-07 16:32:00,
2013-05-07 09:37:00,58.0,53.5,30.04,NW,325,1.0,7.0,85,0.00,,,0.00,357,Wunderground v.1.15,2013-05-07 16:37:00,
2013-05-07 09:43:00,58.3,53.5,30.04,NNW,327,2.0,5.0,84,0.00,,,0.00,422,Wunderground v.1.15,2013-05-07 16:43:00,
2013-05-07 09:48:00,58.7,53.9,30.04,NW,326,2.0,5.0,84,0.00,,,0.00,540,Wunderground v.1.15,2013-05-07 16:48:00,
2013-05-07 09:53:00,59.3,54.1,30.04,NNW,327,1.0,2.0,83,0.00,,,0.00,374,Wunderground v.1.15,2013-05-07 16:53:00,
2013-05-07 09:59:00,59.7,54.2,30.03,NW,324,2.0,5.0,82,0.00,,,0.00,919,Wunderground v.1.15,2013-05-07 16:59:00,
2013-05-07 10:04:00,60.2,54.0,30.03,North,5,2.0,2.0,80,0.00,,,0.00,563,Wunderground v.1.15,2013-05-07 17:04:00,
2013-05-07 10:09:00,60.7,54.1,30.04,North,355,1.0,2.0,79,0.00,,,0.00,262,Wunderground v.1.15,2013-05-07 17:09:00,
2013-05-07 10:15:00,61.5,54.2,30.04,West,280,1.0,3.0,77,0.00,,,0.00,376,Wunderground v.1.15,2013-05-07 17:15:00,
2013-05-07 10:21:00,61.9,53.9,30.03,West,277,1.0,1.0,75,0.00,,,0.00,287,Wunderground v.1.15,2013-05-07 17:21:00,
2013-05-07 10:27:00,62.3,53.9,30.04,West,273,1.0,3.0,74,0.00,,,0.00,246,Wunderground v.1.15,2013-05-07 17:27:00,
2013-05-07 10:33:00,62.5,54.1,30.04,West,273,1.0,1.0,74,0.00,,,0.00,353,Wunderground v.1.15,2013-05-07 17:33:00,
2013-05-07 10:39:00,62.9,54.1,30.04,West,265,0.0,2.0,73,0.00,,,0.00,1016,Wunderground v.1.15,2013-05-07 17:39:00,
2013-05-07 10:44:00,63.2,53.6,30.04,South,171,1.0,4.0,71,0.00,,,0.00,279,Wunderground v.1.15,2013-05-07 17:44:00,
2013-05-07 10:49:00,63.3,53.7,30.03,South,169,1.0,4.0,71,0.00,,,0.00,176,Wunderground v.1.15,2013-05-07 17:49:00,
2013-05-07 10:55:00,63.5,53.5,30.04,NNW,329,1.0,2.0,70,0.00,,,0.00,258,Wunderground v.1.15,2013-05-07 17:55:00,
2013-05-07 11:01:00,63.7,53.3,30.03,NNW,342,1.0,4.0,69,0.00,,,0.00,1014,Wunderground v.1.15,2013-05-07 18:01:00,
2013-05-07 11:07:00,64.3,53.1,30.03,WSW,250,1.0,7.0,67,0.00,,,0.00,981,Wunderground v.1.15,2013-05-07 18:07:00,
2013-05-07 11:12:00,64.7,53.1,30.04,WSW,238,1.0,1.0,66,0.00,,,0.00,299,Wunderground v.1.15,2013-05-07 18:12:00,
2013-05-07 11:17:00,64.8,53.2,30.04,WSW,241,1.0,4.0,66,0.00,,,0.00,285,Wunderground v.1.15,2013-05-07 18:17:00,
2013-05-07 11:23:00,64.8,53.2,30.04,WSW,248,1.0,2.0,66,0.00,,,0.00,1063,Wunderground v.1.15,2013-05-07 18:23:00,
2013-05-07 11:28:00,65.4,52.9,30.04,SSW,211,1.0,5.0,64,0.00,,,0.00,373,Wunderground v.1.15,2013-05-07 18:28:00,
2013-05-07 11:33:00,65.6,52.7,30.04,SW,220,3.0,7.0,63,0.00,,,0.00,250,Wunderground v.1.15,2013-05-07 18:33:00,
2013-05-07 11:39:00,65.4,52.9,30.04,WNW,298,2.0,7.0,64,0.00,,,0.00,501,Wunderground v.1.15,2013-05-07 18:39:00,
2013-05-07 11:45:00,65.4,52.9,30.04,NNW,330,1.0,3.0,64,0.00,,,0.00,670,Wunderground v.1.15,2013-05-07 18:45:00,
2013-05-07 11:51:00,65.5,53.0,30.04,North,11,1.0,2.0,64,0.00,,,0.00,301,Wunderground v.1.15,2013-05-07 18:51:00,
2013-05-07 11:57:00,65.9,52.5,30.04,North,355,0.0,3.0,62,0.00,,,0.00,313,Wunderground v.1.15,2013-05-07 18:57:00,
2013-05-07 12:02:00,66.4,53.0,30.03,WSW,257,1.0,2.0,62,0.00,,,0.00,1088,Wunderground v.1.15,2013-05-07 19:02:00,
2013-05-07 12:07:00,67.0,53.1,30.03,SSW,213,1.0,3.0,61,0.00,,,0.00,432,Wunderground v.1.15,2013-05-07 19:07:00,
2013-05-07 12:12:00,67.6,53.2,30.03,West,278,1.0,2.0,60,0.00,,,0.00,392,Wunderground v.1.15,2013-05-07 19:12:00,
2013-05-07 12:18:00,67.7,53.3,30.03,NW,309,1.0,4.0,60,0.00,,,0.00,260,Wunderground v.1.15,2013-05-07 19:18:00,
2013-05-07 12:24:00,67.4,52.6,30.03,WNW,300,1.0,1.0,59,0.00,,,0.00,230,Wunderground v.1.15,2013-05-07 19:24:00,
2013-05-07 12:29:00,67.3,52.9,30.03,WNW,298,1.0,2.0,60,0.00,,,0.00,181,Wunderground v.1.15,2013-05-07 19:29:00,
2013-05-07 12:34:00,67.4,52.6,30.03,WNW,288,1.0,2.0,59,0.00,,,0.00,213,Wunderground v.1.15,2013-05-07 19:34:00,
2013-05-07 12:39:00,67.2,52.8,30.02,North,351,1.0,4.0,60,0.00,,,0.00,199,Wunderground v.1.15,2013-05-07 19:39:00,
2013-05-07 12:44:00,67.2,53.3,30.02,SW,219,1.0,3.0,61,0.00,,,0.00,290,Wunderground v.1.15,2013-05-07 19:44:00,
2013-05-07 12:50:00,67.1,53.2,30.02,SSW,194,2.0,3.0,61,0.00,,,0.00,341,Wunderground v.1.15,2013-05-07 19:50:00,
2013-05-07 12:55:00,67.1,53.2,30.02,West,268,3.0,5.0,61,0.00,,,0.00,385,Wunderground v.1.15,2013-05-07 19:55:00,
2013-05-07 13:00:00,67.2,52.8,30.02,SSW,210,3.0,3.0,60,0.00,,,0.00,396,Wunderground v.1.15,2013-05-07 20:00:00,
2013-05-07 13:05:00,67.3,52.9,30.02,SSW,211,3.0,6.0,60,0.00,,,0.00,301,Wunderground v.1.15,2013-05-07 20:05:00,
2013-05-07 13:11:00,67.3,53.4,30.02,SW,236,3.0,7.0,61,0.00,,,0.00,285,Wunderground v.1.15,2013-05-07 20:11:00,
2013-05-07 13:16:00,67.0,52.7,30.02,West,270,4.0,10.0,60,0.00,,,0.00,323,Wunderground v.1.15,2013-05-07 20:16:00,
2013-05-07 13:21:00,67.0,53.1,30.01,West,269,4.0,4.0,61,0.00,,,0.00,1025,Wunderground v.1.15,2013-05-07 20:21:00,
2013-05-07 13:26:00,67.7,53.3,30.02,West,280,3.0,4.0,60,0.00,,,0.00,396,Wunderground v.1.15,2013-05-07 20:26:00,
2013-05-07 13:32:00,68.4,53.0,30.02,South,190,3.0,4.0,58,0.00,,,0.00,357,Wunderground v.1.15,2013-05-07 20:32:00,
2013-05-07 13:38:00,68.8,52.9,30.01,WSW,252,3.0,9.0,57,0.00,,,0.00,392,Wunderground v.1.15,2013-05-07 20:38:00,
2013-05-07 13:44:00,69.2,53.3,30.01,West,265,4.0,11.0,57,0.00,,,0.00,1229,Wunderground v.1.15,2013-05-07 20:44:00,
2013-05-07 13:50:00,69.5,54.1,30.01,WSW,242,4.0,5.0,58,0.00,,,0.00,338,Wunderground v.1.15,2013-05-07 20:50:00,
2013-05-07 13:56:00,69.8,53.4,30.01,West,269,2.0,5.0,56,0.00,,,0.00,322,Wunderground v.1.15,2013-05-07 20:56:00,
2013-05-07 14:02:00,69.5,53.1,30.02,WSW,244,4.0,7.0,56,0.00,,,0.00,230,Wunderground v.1.15,2013-05-07 21:02:00,
2013-05-07 14:07:00,68.9,52.6,30.01,SW,227,5.0,7.0,56,0.00,,,0.00,163,Wunderground v.1.15,2013-05-07 21:07:00,
2013-05-07 14:13:00,68.5,53.1,30.02,SW,214,3.0,4.0,58,0.00,,,0.00,123,Wunderground v.1.15,2013-05-07 21:13:00,
2013-05-07 14:18:00,68.3,52.9,30.02,West,280,2.0,5.0,58,0.00,,,0.00,127,Wunderground v.1.15,2013-05-07 21:18:00,
2013-05-07 14:24:00,68.0,52.2,30.02,WNW,302,2.0,4.0,57,0.00,,,0.00,125,Wunderground v.1.15,2013-05-07 21:24:00,
2013-05-07 14:30:00,67.5,51.7,30.02,SW,217,3.0,3.0,57,0.00,,,0.00,135,Wunderground v.1.15,2013-05-07 21:30:00,
2013-05-07 14:35:00,67.1,51.8,30.02,NW,307,3.0,6.0,58,0.00,,,0.00,151,Wunderground v.1.15,2013-05-07 21:35:00,
2013-05-07 14:41:00,66.8,51.1,30.02,WSW,252,3.0,7.0,57,0.00,,,0.00,176,Wunderground v.1.15,2013-05-07 21:41:00,
2013-05-07 14:46:00,66.5,50.3,30.02,West,263,3.0,8.0,56,0.00,,,0.00,209,Wunderground v.1.15,2013-05-07 21:46:00,
2013-05-07 14:51:00,66.3,50.6,30.02,WSW,245,4.0,9.0,57,0.00,,,0.00,255,Wunderground v.1.15,2013-05-07 21:51:00,
2013-05-07 14:56:00,66.5,51.7,30.02,SW,223,3.0,9.0,59,0.00,,,0.00,283,Wunderground v.1.15,2013-05-07 21:56:00,
2013-05-07 15:02:00,66.9,51.6,30.02,WNW,291,1.0,2.0,58,0.00,,,0.00,318,Wunderground v.1.15,2013-05-07 22:02:00,
2013-05-07 15:07:00,67.1,50.9,30.02,West,270,2.0,6.0,56,0.00,,,0.00,306,Wunderground v.1.15,2013-05-07 22:07:00,
2013-05-07 15:13:00,67.2,51.0,30.01,WSW,245,3.0,3.0,56,0.00,,,0.00,258,Wunderground v.1.15,2013-05-07 22:13:00,
2013-05-07 15:19:00,67.2,51.0,30.01,WSW,242,2.0,5.0,56,0.00,,,0.00,230,Wunderground v.1.15,2013-05-07 22:19:00,
2013-05-07 15:25:00,67.2,50.0,30.01,West,261,2.0,5.0,54,0.00,,,0.00,896,Wunderground v.1.15,2013-05-07 22:25:00,
2013-05-07 15:31:00,67.9,50.6,30.01,WSW,242,3.0,3.0,54,0.00,,,0.00,817,Wunderground v.1.15,2013-05-07 22:31:00,
2013-05-07 15:37:00,68.8,49.9,30.00,SSW,202,4.0,8.0,51,0.00,,,0.00,775,Wunderground v.1.15,2013-05-07 22:37:00,
2013-05-07 15:43:00,69.0,51.2,30.00,SSW,212,5.0,7.0,53,0.00,,,0.00,766,Wunderground v.1.15,2013-05-07 22:43:00,
2013-05-07 15:49:00,69.3,49.9,30.00,South,185,4.0,8.0,50,0.00,,,0.00,752,Wunderground v.1.15,2013-05-07 22:49:00,
2013-05-07 15:55:00,69.9,50.9,30.00,West,263,4.0,6.0,51,0.00,,,0.00,740,Wunderground v.1.15,2013-05-07 22:55:00,
2013-05-07 16:00:00,70.3,50.2,30.00,WSW,243,3.0,3.0,49,0.00,,,0.00,735,Wunderground v.1.15,2013-05-07 23:00:00,
2013-05-07 16:05:00,70.2,49.6,30.00,South,188,5.0,5.0,48,0.00,,,0.00,717,Wunderground v.1.15,2013-05-07 23:05:00,
2013-05-07 16:11:00,70.0,50.0,30.00,WSW,255,5.0,9.0,49,0.00,,,0.00,696,Wunderground v.1.15,2013-05-07 23:11:00,
2013-05-07 16:16:00,69.9,50.9,30.00,West,263,4.0,9.0,51,0.00,,,0.00,682,Wunderground v.1.15,2013-05-07 23:16:00,
2013-05-07 16:22:00,69.8,49.8,30.00,WSW,248,5.0,9.0,49,0.00,,,0.00,680,Wunderground v.1.15,2013-05-07 23:22:00,
2013-05-07 16:28:00,69.8,49.8,30.00,WSW,246,5.0,9.0,49,0.00,,,0.00,663,Wunderground v.1.15,2013-05-07 23:28:00,
2013-05-07 16:34:00,69.8,49.8,30.00,SSW,198,5.0,9.0,49,0.00,,,0.00,629,Wunderground v.1.15,2013-05-07 23:34:00,
2013-05-07 16:40:00,69.9,49.9,30.00,SW,218,4.0,5.0,49,0.00,,,0.00,606,Wunderground v.1.15,2013-05-07 23:40:00,
2013-05-07 16:46:00,69.9,49.9,30.00,SSW,194,5.0,6.0,49,0.00,,,0.00,591,Wunderground v.1.15,2013-05-07 23:46:00,
2013-05-07 16:52:00,69.9,49.3,30.00,WSW,241,4.0,10.0,48,0.00,,,0.00,570,Wunderground v.1.15,2013-05-07 23:52:00,
2013-05-07 16:58:00,69.8,48.1,30.00,WSW,254,4.0,10.0,46,0.00,,,0.00,545,Wunderground v.1.15,2013-05-07 23:58:00,
2013-05-07 17:03:00,69.5,47.8,29.99,SW,232,5.0,7.0,46,0.00,,,0.00,536,Wunderground v.1.15,2013-05-08 00:03:00,
2013-05-07 17:08:00,69.2,48.1,29.99,SSE,161,5.0,9.0,47,0.00,,,0.00,519,Wunderground v.1.15,2013-05-08 00:08:00,
2013-05-07 17:14:00,69.1,49.1,30.00,WNW,289,4.0,5.0,49,0.00,,,0.00,501,Wunderground v.1.15,2013-05-08 00:14:00,
2013-05-07 17:20:00,68.9,47.8,30.00,SSW,196,4.0,4.0,47,0.00,,,0.00,487,Wunderground v.1.15,2013-05-08 00:20:00,
2013-05-07 17:26:00,68.8,47.7,30.00,WNW,291,4.0,8.0,47,0.00,,,0.00,462,Wunderground v.1.15,2013-05-08 00:26:00,
2013-05-07 17:32:00,68.6,49.2,30.00,WSW,257,4.0,8.0,50,0.00,,,0.00,454,Wunderground v.1.15,2013-05-08 00:32:00,
2013-05-07 17:37:00,68.7,49.8,30.00,SSW,205,3.0,8.0,51,0.00,,,0.00,436,Wunderground v.1.15,2013-05-08 00:37:00,
2013-05-07 17:43:00,68.7,49.3,30.00,SSW,211,4.0,8.0,50,0.00,,,0.00,415,Wunderground v.1.15,2013-05-08 00:43:00,
2013-05-07 17:49:00,68.5,49.7,30.00,WNW,290,4.0,8.0,51,0.00,,,0.00,390,Wunderground v.1.15,2013-05-08 00:49:00,
2013-05-07 17:55:00,68.1,49.8,30.00,South,186,4.0,10.0,52,0.00,,,0.00,374,Wunderground v.1.15,2013-05-08 00:55:00,
2013-05-07 18:01:00,67.8,49.5,30.00,West,271,4.0,4.0,52,0.00,,,0.00,359,Wunderground v.1.15,2013-05-08 01:01:00,
2013-05-07 18:07:00,67.3,48.5,30.00,NW,311,6.0,11.0,51,0.00,,,0.00,334,Wunderground v.1.15,2013-05-08 01:07:00,
2013-05-07 18:12:00,66.9,49.7,30.00,SSW,211,6.0,7.0,54,0.00,,,0.00,313,Wunderground v.1.15,2013-05-08 01:12:00,
2013-05-07 18:18:00,66.8,49.6,30.00,WSW,257,4.0,7.0,54,0.00,,,0.00,285,Wunderground v.1.15,2013-05-08 01:18:00,
2013-05-07 18:24:00,66.8,51.5,30.00,NW,316,3.0,8.0,58,0.00,,,0.00,269,Wunderground v.1.15,2013-05-08 01:24:00,
2013-05-07 18:30:00,66.7,51.9,30.00,ENE,73,2.0,2.0,59,0.00,,,0.00,257,Wunderground v.1.15,2013-05-08 01:30:00,
2013-05-07 18:35:00,66.7,52.4,30.00,NNW,347,1.0,2.0,60,0.00,,,0.00,244,Wunderground v.1.15,2013-05-08 01:35:00,
2013-05-07 18:40:00,66.6,52.3,30.00,SW,228,1.0,4.0,60,0.00,,,0.00,227,Wunderground v.1.15,2013-05-08 01:40:00,
2013-05-07 18:46:00,65.8,52.0,30.01,West,264,3.0,10.0,61,0.00,,,0.00,225,Wunderground v.1.15,2013-05-08 01:46:00,
2013-05-07 18:51:00,65.2,51.8,30.01,NW,313,3.0,4.0,62,0.00,,,0.00,220,Wunderground v.1.15,2013-05-08 01:51:00,
2013-05-07 18:57:00,64.9,51.6,30.01,West,265,1.0,4.0,62,0.00,,,0.00,158,Wunderground v.1.15,2013-05-08 01:57:00,
2013-05-07 19:03:00,64.3,51.0,30.01,South,188,3.0,4.0,62,0.00,,,0.00,97,Wunderground v.1.15,2013-05-08 02:03:00,
2013-05-07 19:09:00,64.0,51.1,30.01,South,188,2.0,4.0,63,0.00,,,0.00,70,Wunderground v.1.15,2013-05-08 02:09:00,
2013-05-07 19:14:00,63.9,51.5,30.01,SSW,198,0.0,3.0,64,0.00,,,0.00,44,Wunderground v.1.15,2013-05-08 02:14:00,
2013-05-07 19:19:00,63.6,51.2,30.01,SSW,213,1.0,3.0,64,0.00,,,0.00,39,Wunderground v.1.15,2013-05-08 02:19:00,
2013-05-07 19:25:00,63.2,51.2,30.01,SSW,213,0.0,1.0,65,0.00,,,0.00,32,Wunderground v.1.15,2013-05-08 02:25:00,
2013-05-07 19:31:00,62.9,51.0,30.01,SSW,213,0.0,1.0,65,0.00,,,0.00,26,Wunderground v.1.15,2013-05-08 02:31:00,
2013-05-07 19:37:00,62.5,51.0,30.02,SSW,205,1.0,3.0,66,0.00,,,0.00,21,Wunderground v.1.15,2013-05-08 02:37:00,
2013-05-07 19:42:00,62.0,50.9,30.02,SSW,211,1.0,3.0,67,0.00,,,0.00,19,Wunderground v.1.15,2013-05-08 02:42:00,
2013-05-07 19:48:00,61.6,50.9,30.02,SSW,211,0.0,3.0,68,0.00,,,0.00,18,Wunderground v.1.15,2013-05-08 02:48:00,
2013-05-07 19:53:00,61.3,50.6,30.02,SSW,211,0.0,1.0,68,0.00,,,0.00,12,Wunderground v.1.15,2013-05-08 02:53:00,
2013-05-07 19:58:00,60.9,50.7,30.03,SSW,211,0.0,1.0,69,0.00,,,0.00,9,Wunderground v.1.15,2013-05-08 02:58:00,
2013-05-07 20:04:00,60.6,50.8,30.03,SSW,211,0.0,1.0,70,0.00,,,0.00,5,Wunderground v.1.15,2013-05-08 03:04:00,
2013-05-07 20:09:00,60.2,50.4,30.03,SSW,211,0.0,1.0,70,0.00,,,0.00,0,Wunderground v.1.15,2013-05-08 03:09:00,
2013-05-07 20:15:00,60.1,50.7,30.03,SSW,211,0.0,1.0,71,0.00,,,0.00,0,Wunderground v.1.15,2013-05-08 03:15:00,
2013-05-07 20:21:00,59.9,50.5,30.03,SSW,211,0.0,1.0,71,0.00,,,0.00,0,Wunderground v.1.15,2013-05-08 03:21:00,
2013-05-07 20:27:00,59.6,50.6,30.03,SSW,211,0.0,1.0,72,0.00,,,0.00,0,Wunderground v.1.15,2013-05-08 03:27:00,
2013-05-07 20:32:00,59.5,50.5,30.04,SSW,211,0.0,1.0,72,0.00,,,0.00,0,Wunderground v.1.15,2013-05-08 03:32:00,
2013-05-07 20:37:00,59.4,50.7,30.04,SSW,211,0.0,1.0,73,0.00,,,0.00,0,Wunderground v.1.15,2013-05-08 03:37:00,
2013-05-07 20:43:00,59.4,50.7,30.04,SSW,211,0.0,1.0,73,0.00,,,0.00,0,Wunderground v.1.15,2013-05-08 03:43:00,
2013-05-07 20:49:00,59.3,50.6,30.03,SSW,211,0.0,1.0,73,0.00,,,0.00,0,Wunderground v.1.15,2013-05-08 03:49:00,
2013-05-07 20:54:00,59.3,50.6,30.04,SSW,211,0.0,1.0,73,0.00,,,0.00,0,Wunderground v.1.15,2013-05-08 03:54:00,
2013-05-07 20:59:00,59.0,50.7,30.04,SSW,211,0.0,1.0,74,0.00,,,0.00,0,Wunderground v.1.15,2013-05-08 03:59:00,
2013-05-07 21:01:00,58.9,50.6,30.03,SSW,211,0.0,1.0,74,0.00,,,0.00,0,Wunderground v.1.15,2013-05-08 04:01:00,
2013-05-07 21:05:00,58.9,51.0,30.04,SSW,211,0.0,1.0,75,0.00,,,0.00,0,Wunderground v.1.15,2013-05-08 04:05:00,
2013-05-07 21:08:00,58.8,50.9,30.04,SSW,211,0.0,1.0,75,0.00,,,0.00,0,Wunderground v.1.15,2013-05-08 04:08:00,
2013-05-07 21:10:00,58.8,50.9,30.04,SSW,211,0.0,1.0,75,0.00,,,0.00,0,Wunderground v.1.15,2013-05-08 04:10:00,
2013-05-07 21:13:00,58.8,50.9,30.04,SSW,211,0.0,2.0,75,0.00,,,0.00,0,Wunderground v.1.15,2013-05-08 04:13:00,
2013-05-07 21:18:00,58.7,51.2,30.04,SSW,211,0.0,2.0,76,0.00,,,0.00,0,Wunderground v.1.15,2013-05-08 04:18:00,
2013-05-07 21:24:00,58.6,51.1,30.04,SSW,211,0.0,1.0,76,0.00,,,0.00,0,Wunderground v.1.15,2013-05-08 04:24:00,
2013-05-07 21:29:00,58.6,51.4,30.04,SSW,211,0.0,1.0,77,0.00,,,0.00,0,Wunderground v.1.15,2013-05-08 04:29:00,
2013-05-07 21:34:00,58.4,51.2,30.04,SSW,211,0.0,1.0,77,0.00,,,0.00,0,Wunderground v.1.15,2013-05-08 04:34:00,
2013-05-07 21:40:00,58.3,51.1,30.04,SSW,211,0.0,1.0,77,0.00,,,0.00,0,Wunderground v.1.15,2013-05-08 04:40:00,
2013-05-07 21:46:00,58.0,51.2,30.03,SSW,211,0.0,1.0,78,0.00,,,0.00,0,Wunderground v.1.15,2013-05-08 04:46:00,
2013-05-07 21:52:00,57.8,51.0,30.04,SSW,211,0.0,1.0,78,0.00,,,0.00,0,Wunderground v.1.15,2013-05-08 04:52:00,
2013-05-07 21:58:00,57.6,50.8,30.04,SSW,211,0.0,1.0,78,0.00,,,0.00,0,Wunderground v.1.15,2013-05-08 04:58:00,
2013-05-07 22:04:00,57.5,51.0,30.04,SSW,211,0.0,1.0,79,0.00,,,0.00,0,Wunderground v.1.15,2013-05-08 05:04:00,
2013-05-07 22:10:00,57.5,51.0,30.04,SSW,211,0.0,1.0,79,0.00,,,0.00,0,Wunderground v.1.15,2013-05-08 05:10:00,
2013-05-07 22:16:00,57.4,50.9,30.04,SSW,211,0.0,1.0,79,0.00,,,0.00,0,Wunderground v.1.15,2013-05-08 05:16:00,
2013-05-07 22:21:00,57.3,50.8,30.04,SSW,211,0.0,1.0,79,0.00,,,0.00,0,Wunderground v.1.15,2013-05-08 05:21:00,
2013-05-07 22:26:00,57.2,51.1,30.04,WSW,252,0.0,1.0,80,0.00,,,0.00,0,Wunderground v.1.15,2013-05-08 05:26:00,
2013-05-07 22:32:00,57.1,51.0,30.04,WSW,253,1.0,1.0,80,0.00,,,0.00,0,Wunderground v.1.15,2013-05-08 05:32:00,
2013-05-07 22:37:00,56.9,50.8,30.04,West,259,1.0,1.0,80,0.00,,,0.00,0,Wunderground v.1.15,2013-05-08 05:37:00,
2013-05-07 22:43:00,56.8,50.7,30.05,West,259,0.0,1.0,80,0.00,,,0.00,0,Wunderground v.1.15,2013-05-08 05:43:00,
2013-05-07 22:48:00,56.5,50.7,30.04,West,259,0.0,2.0,81,0.00,,,0.00,0,Wunderground v.1.15,2013-05-08 05:48:00,
2013-05-07 22:53:00,56.3,50.5,30.04,West,259,0.0,1.0,81,0.00,,,0.00,0,Wunderground v.1.15,2013-05-08 05:53:00,
2013-05-07 22:59:00,56.0,50.6,30.04,West,259,0.0,1.0,82,0.00,,,0.00,0,Wunderground v.1.15,2013-05-08 05:59:00,
2013-05-07 23:04:00,55.8,50.4,30.04,West,259,0.0,1.0,82,0.00,,,0.00,0,Wunderground v.1.15,2013-05-08 06:04:00,
2013-05-07 23:09:00,55.7,50.3,30.04,West,259,0.0,1.0,82,0.00,,,0.00,0,Wunderground v.1.15,2013-05-08 06:09:00,
2013-05-07 23:14:00,55.4,50.0,30.04,West,259,0.0,1.0,82,0.00,,,0.00,0,Wunderground v.1.15,2013-05-08 06:14:00,
2013-05-07 23:20:00,55.2,50.1,30.04,West,259,0.0,1.0,83,0.00,,,0.00,0,Wunderground v.1.15,2013-05-08 06:20:00,
2013-05-07 23:25:00,55.0,49.9,30.05,West,259,0.0,1.0,83,0.00,,,0.00,0,Wunderground v.1.15,2013-05-08 06:25:00,
2013-05-07 23:31:00,54.8,49.7,30.05,West,259,0.0,1.0,83,0.00,,,0.00,0,Wunderground v.1.15,2013-05-08 06:31:00,
2013-05-07 23:37:00,54.5,49.8,30.05,West,259,0.0,1.0,84,0.00,,,0.00,0,Wunderground v.1.15,2013-05-08 06:37:00,
2013-05-07 23:43:00,54.2,49.5,30.05,West,259,0.0,1.0,84,0.00,,,0.00,0,Wunderground v.1.15,2013-05-08 06:43:00,
2013-05-07 23:49:00,54.1,49.7,30.06,West,259,0.0,1.0,85,0.00,,,0.00,0,Wunderground v.1.15,2013-05-08 06:49:00,
2013-05-07 23:54:00,53.9,49.5,30.06,West,259,0.0,1.0,85,0.00,,,0.00,0,Wunderground v.1.15,2013-05-08 06:54:00,
2013-05-07 23:59:00,53.8,49.7,30.06,West,259,0.0,1.0,86,0.00,,,0.00,0,Wunderground v.1.15,2013-05-08 06:59:00,